Time;durP1;ratioP1;P1;durP2;ratioP2;P2;SDS_P1;SDS_P2;PMS_P1;PMS_P2;Temp;Humidity;BMP_temperature;BMP_pressure;BME280_temperature;BME280_humidity;BME280_pressure;Samples;Min_cycle;Max_cycle;Signal;HPM_P1;HPM_P2
2023/04/03 00:00:46;;;;;;;5.10;3.42;;;;;;;11.30;100.00;97472.69;5014636;28;20041;-76
2023/04/03 00:03:12;;;;;;;5.47;3.88;;;;;;;10.53;100.00;97363.84;5052442;28;20095;-75
2023/04/03 00:05:41;;;;;;;6.63;3.70;;;;;;;10.93;100.00;97390.63;5035685;28;20075;-77
2023/04/03 00:08:09;;;;;;;6.90;3.83;;;;;;;11.28;100.00;97460.09;5054127;28;20036;-76
2023/04/03 00:10:36;;;;;;;4.93;3.60;;;;;;;11.55;100.00;97457.28;5053821;28;20118;-76
2023/04/03 00:13:02;;;;;;;4.97;3.15;;;;;;;10.89;100.00;97485.78;5054068;28;20052;-77
2023/04/03 00:15:28;;;;;;;4.70;2.60;;;;;;;10.71;100.00;97486.22;5034557;28;20051;-77
2023/04/03 00:17:53;;;;;;;3.20;2.30;;;;;;;10.33;100.00;97504.88;5053163;28;20123;-77
2023/04/03 00:20:20;;;;;;;2.70;2.40;;;;;;;10.42;100.00;97467.88;5034029;28;20123;-76
2023/04/03 00:22:45;;;;;;;3.20;2.83;;;;;;;9.58;100.00;97332.34;5053215;28;20048;-77
2023/04/03 00:25:11;;;;;;;5.03;2.67;;;;;;;10.32;100.00;97360.25;5035146;28;20422;-76
2023/04/03 00:27:39;;;;;;;3.30;2.65;;;;;;;10.28;100.00;97402.81;5035108;28;20064;-76
2023/04/03 00:30:06;;;;;;;3.45;2.60;;;;;;;10.54;100.00;97459.44;5034771;28;20090;-76
2023/04/03 00:32:32;;;;;;;3.90;2.33;;;;;;;10.48;100.00;97382.88;5053004;28;20036;-76
2023/04/03 00:34:57;;;;;;;4.15;3.10;;;;;;;10.27;100.00;97377.53;5052353;28;20036;-75
2023/04/03 00:37:22;;;;;;;3.92;3.10;;;;;;;10.69;100.00;97409.31;5052011;28;20099;-74
2023/04/03 00:39:48;;;;;;;6.50;4.05;;;;;;;10.15;100.00;97337.75;5052754;28;20052;-76
2023/04/03 00:42:13;;;;;;;5.45;3.90;;;;;;;10.31;100.00;97415.31;5052230;28;20055;-76
2023/04/03 00:44:41;;;;;;;4.43;3.90;;;;;;;10.46;100.00;97398.19;5053232;28;20029;-77
2023/04/03 00:47:10;;;;;;;5.18;3.83;;;;;;;10.24;100.00;97325.25;5039203;28;20037;-77
2023/04/03 00:49:38;;;;;;;5.70;3.83;;;;;;;10.60;100.00;97354.06;5014753;28;20179;-77
2023/04/03 00:52:06;;;;;;;4.55;3.63;;;;;;;9.85;100.00;97274.66;5032633;28;20060;-78
2023/04/03 00:54:34;;;;;;;5.55;4.20;;;;;;;9.65;100.00;97303.09;5015010;28;20099;-76
2023/04/03 00:57:00;;;;;;;7.40;4.53;;;;;;;9.99;100.00;97362.53;5032032;28;20072;-78
2023/04/03 00:59:31;;;;;;;7.95;3.95;;;;;;;9.58;100.00;97287.50;5032484;28;20049;-76
2023/04/03 01:01:57;;;;;;;4.97;3.63;;;;;;;9.16;100.00;97236.31;5024809;28;20194;-76
2023/04/03 01:04:39;;;;;;;3.88;3.38;;;;;;;9.89;100.00;97367.41;4994156;28;20065;-77
2023/04/03 01:07:12;;;;;;;5.47;4.20;;;;;;;9.44;100.00;97257.19;5027366;28;20092;-75
2023/04/03 01:09:38;;;;;;;7.43;5.20;;;;;;;10.19;100.00;97337.44;5011432;28;20096;-75
2023/04/03 01:12:17;;;;;;;8.55;6.55;;;;;;;9.41;100.00;97254.84;5012184;28;20073;-76
2023/04/03 01:14:43;;;;;;;8.02;5.45;;;;;;;9.40;100.00;97200.00;4995938;28;20033;-78
2023/04/03 01:17:27;;;;;;;8.93;6.07;;;;;;;10.03;100.00;97311.47;5013600;28;20026;-78
2023/04/03 01:20:22;;;;;;;8.93;6.07;;;;;;;9.86;100.00;97291.53;4995559;28;20034;-78
2023/04/03 01:23:10;;;;;;;7.38;5.32;;;;;;;10.04;100.00;97307.22;4946314;28;20469;-77
2023/04/03 01:25:51;;;;;;;6.55;4.55;;;;;;;9.36;100.00;97251.84;4994419;28;20385;-76
2023/04/03 01:28:26;;;;;;;5.83;4.77;;;;;;;9.20;100.00;97222.53;5008622;28;20038;-76
2023/04/03 01:31:27;;;;;;;6.50;4.30;;;;;;;9.36;100.00;97304.25;5010364;28;20124;-76
2023/04/03 01:33:54;;;;;;;5.40;4.30;;;;;;;9.29;100.00;97268.34;5012118;28;20030;-77
2023/04/03 01:36:26;;;;;;;5.10;4.00;;;;;;;8.85;100.00;97219.00;4994604;28;20539;-76
2023/04/03 01:38:52;;;;;;;5.60;3.55;;;;;;;9.39;100.00;97307.38;5011371;28;20040;-76
2023/04/03 01:41:20;;;;;;;4.93;3.50;;;;;;;9.20;100.00;97225.06;5011245;28;20033;-75
2023/04/03 01:43:47;;;;;;;4.30;3.85;;;;;;;9.71;100.00;97284.13;4994831;28;20124;-76
2023/04/03 01:46:12;;;;;;;5.00;3.90;;;;;;;9.23;100.00;97255.28;5027766;28;20034;-75
2023/04/03 01:48:38;;;;;;;4.30;3.60;;;;;;;9.45;100.00;97296.03;5011533;28;20052;-75
2023/04/03 01:51:04;;;;;;;5.47;4.18;;;;;;;9.29;100.00;97248.06;4994767;28;20116;-75
2023/04/03 01:53:29;;;;;;;5.35;3.95;;;;;;;9.30;100.00;97285.19;4993980;28;20036;-76
2023/04/03 01:55:54;;;;;;;4.95;3.92;;;;;;;8.67;100.00;97223.53;4994011;28;20117;-75
2023/04/03 01:58:20;;;;;;;3.85;3.30;;;;;;;9.10;100.00;97297.53;5011606;28;20030;-75
2023/04/03 02:00:46;;;;;;;5.68;3.92;;;;;;;9.63;100.00;97299.06;4994579;28;20061;-76
2023/04/03 02:03:11;;;;;;;4.93;3.83;;;;;;;9.08;100.00;97213.22;5011900;28;20053;-77
2023/04/03 02:05:37;;;;;;;4.00;3.45;;;;;;;9.73;100.00;97275.50;5011954;28;20029;-77
2023/04/03 02:08:03;;;;;;;4.13;3.70;;;;;;;9.72;100.00;97278.16;5011696;28;20412;-77
2023/04/03 02:10:28;;;;;;;5.28;3.83;;;;;;;9.55;100.00;97286.88;4994427;28;20030;-76
2023/04/03 02:12:54;;;;;;;8.93;4.05;;;;;;;9.56;100.00;97283.44;4994375;28;20034;-76
2023/04/03 02:15:20;;;;;;;4.97;3.70;;;;;;;9.26;100.00;97238.16;5011623;28;20084;-75
2023/04/03 02:17:46;;;;;;;5.45;4.32;;;;;;;9.58;100.00;97261.34;5011233;28;20046;-76
2023/04/03 02:20:12;;;;;;;6.35;4.80;;;;;;;9.68;100.00;97211.63;5011948;28;20026;-76
2023/04/03 02:22:37;;;;;;;15.63;13.93;;;;;;;9.69;100.00;97293.56;5011655;28;20034;-75
2023/04/03 02:25:03;;;;;;;12.15;9.05;;;;;;;9.61;100.00;97291.53;5011731;28;20040;-77
2023/04/03 02:27:31;;;;;;;8.48;6.70;;;;;;;9.28;100.00;97296.34;4994785;28;20050;-77
2023/04/03 02:29:57;;;;;;;8.52;5.65;;;;;;;9.17;100.00;97212.63;5011798;28;20033;-76
2023/04/03 02:32:22;;;;;;;6.25;4.75;;;;;;;9.36;100.00;97279.72;5018195;28;20041;-76
2023/04/03 02:34:48;;;;;;;7.32;5.00;;;;;;;8.57;100.00;97209.84;5016538;28;20038;-75
2023/04/03 02:37:13;;;;;;;6.38;4.80;;;;;;;9.26;100.00;97288.84;4984969;28;20038;-76
2023/04/03 02:39:39;;;;;;;4.60;4.00;;;;;;;9.15;100.00;97205.09;4994244;28;20034;-77
2023/04/03 02:42:04;;;;;;;6.40;4.18;;;;;;;8.49;100.00;97157.19;5011992;28;20066;-79
2023/04/03 02:44:30;;;;;;;9.30;4.15;;;;;;;8.81;100.00;97308.75;5014869;28;20065;-78
2023/04/03 02:46:56;;;;;;;6.50;4.28;;;;;;;8.14;100.00;97335.69;5014928;28;20037;-77
2023/04/03 02:49:22;;;;;;;7.15;5.03;;;;;;;7.88;100.00;97247.97;4997711;28;20040;-77
2023/04/03 02:51:47;;;;;;;7.43;4.65;;;;;;;8.11;100.00;97282.78;5014417;28;20037;-76
2023/04/03 02:54:13;;;;;;;6.88;4.90;;;;;;;7.99;100.00;97273.41;5014820;28;20045;-78
2023/04/03 02:56:39;;;;;;;5.63;4.38;;;;;;;8.48;100.00;97314.22;5014813;28;20041;-78
2023/04/03 02:59:04;;;;;;;7.00;5.15;;;;;;;8.39;100.00;97307.22;4997730;28;20037;-76
2023/04/03 03:01:32;;;;;;;11.68;7.80;;;;;;;8.20;100.00;97321.88;4998113;28;20050;-77
2023/04/03 03:03:59;;;;;;;8.73;6.20;;;;;;;7.92;100.00;97241.00;5034526;28;20033;-77
2023/04/03 03:06:24;;;;;;;7.18;5.82;;;;;;;7.88;100.00;97253.03;5017282;28;20025;-76
2023/04/03 03:08:50;;;;;;;6.20;5.00;;;;;;;8.52;100.00;97308.06;5034666;28;20411;-77
2023/04/03 03:11:16;;;;;;;7.32;5.20;;;;;;;7.31;100.00;97221.94;5016980;28;20029;-77
2023/04/03 03:13:41;;;;;;;6.45;5.40;;;;;;;7.68;100.00;97236.53;5016444;28;20067;-77
2023/04/03 03:16:07;;;;;;;9.68;6.20;;;;;;;7.86;100.00;97242.19;5024337;28;20092;-77
2023/04/03 03:18:33;;;;;;;11.02;6.20;;;;;;;7.89;100.00;97226.81;4987015;28;20049;-78
2023/04/03 03:21:00;;;;;;;9.93;6.20;;;;;;;8.14;100.00;97259.00;4995404;28;20035;-78
2023/04/03 03:23:28;;;;;;;10.15;5.97;;;;;;;8.06;100.00;97231.63;4996724;28;20038;-77
2023/04/03 03:25:59;;;;;;;9.45;6.20;;;;;;;8.09;100.00;97178.34;5011804;28;20030;-77
2023/04/03 03:28:25;;;;;;;8.27;5.25;;;;;;;8.25;100.00;97110.72;5014157;28;20053;-78
2023/04/03 03:30:51;;;;;;;12.32;6.72;;;;;;;7.97;100.00;97047.59;5003558;28;20034;-77
2023/04/03 03:33:18;;;;;;;37.85;16.83;;;;;;;8.00;100.00;97026.38;5018480;28;20129;-78
2023/04/03 03:35:43;;;;;;;22.23;11.45;;;;;;;8.64;100.00;97087.00;5013365;28;20087;-80
2023/04/03 03:38:09;;;;;;;23.35;10.25;;;;;;;10.07;100.00;96923.78;5012840;28;20390;-77
2023/04/03 03:40:35;;;;;;;25.30;12.70;;;;;;;8.92;100.00;97013.31;5013790;28;20072;-78
2023/04/03 03:43:00;;;;;;;15.30;8.35;;;;;;;9.02;100.00;96998.28;5012569;28;20049;-77
2023/04/03 03:45:26;;;;;;;18.10;10.40;;;;;;;8.63;100.00;96891.28;5013313;28;20030;-78
2023/04/03 03:47:52;;;;;;;17.05;10.20;;;;;;;8.08;100.00;96900.22;5019431;28;20545;-78
2023/04/03 03:50:17;;;;;;;23.10;11.57;;;;;;;8.79;100.00;96958.56;5008582;28;20626;-77
2023/04/03 03:52:43;;;;;;;13.80;8.18;;;;;;;8.66;100.00;96966.19;5012792;28;20494;-77
2023/04/03 03:55:08;;;;;;;22.15;7.60;;;;;;;10.84;100.00;96902.56;5010750;28;20030;-83
2023/04/03 03:57:33;;;;;;;9.77;7.00;;;;;;;8.82;100.00;97037.66;4995439;28;20060;-76
2023/04/03 03:59:59;;;;;;;14.85;8.82;;;;;;;7.63;100.00;96970.59;4995704;28;20116;-77
2023/04/03 04:02:25;;;;;;;12.85;8.68;;;;;;;7.48;100.00;97003.63;5022093;28;20167;-77
2023/04/03 04:04:50;;;;;;;24.25;11.10;;;;;;;7.63;100.00;97093.63;5033352;28;20022;-77
2023/04/03 04:07:16;;;;;;;24.17;11.68;;;;;;;7.63;100.00;97066.66;5014710;28;20034;-77
2023/04/03 04:09:41;;;;;;;14.75;8.18;;;;;;;7.97;100.00;97103.22;5014847;28;20026;-76
2023/04/03 04:12:06;;;;;;;14.55;8.32;;;;;;;7.36;100.00;97010.28;5014467;28;20044;-81
2023/04/03 04:14:32;;;;;;;11.23;7.45;;;;;;;7.43;100.00;97003.09;5032907;28;20033;-78
2023/04/03 04:16:57;;;;;;;9.15;6.45;;;;;;;8.19;100.00;97103.47;5033510;28;20021;-76
2023/04/03 04:19:23;;;;;;;6.95;6.00;;;;;;;8.36;100.00;97136.13;5032503;28;20044;-75
2023/04/03 04:21:50;;;;;;;7.95;5.78;;;;;;;7.65;100.00;97001.63;5032866;28;20071;-78
2023/04/03 04:24:16;;;;;;;12.13;6.80;;;;;;;9.05;100.00;97119.69;5031772;28;20116;-77
2023/04/03 04:26:41;;;;;;;9.32;7.78;;;;;;;7.43;100.00;97107.50;5045164;28;20116;-83
2023/04/03 04:29:09;;;;;;;10.07;6.30;;;;;;;7.77;100.00;97208.16;5014653;28;21009;-79
2023/04/03 04:31:37;;;;;;;11.68;7.28;;;;;;;7.89;100.00;97204.88;5014979;28;20034;-77
2023/04/03 04:34:03;;;;;;;14.15;8.60;;;;;;;8.15;100.00;97188.06;5047505;28;20036;-76
2023/04/03 04:36:28;;;;;;;8.52;6.68;;;;;;;7.65;100.00;97122.16;5030940;28;20025;-77
2023/04/03 04:38:54;;;;;;;14.90;8.02;;;;;;;7.84;100.00;97184.09;4994822;28;20022;-79
2023/04/03 04:41:22;;;;;;;20.23;11.25;;;;;;;7.69;100.00;97123.56;5011245;28;20535;-81
2023/04/03 04:43:48;;;;;;;13.50;11.23;;;;;;;7.75;100.00;97080.22;4994436;28;20022;-83
2023/04/03 04:46:14;;;;;;;11.90;10.75;;;;;;;8.47;100.00;97199.53;5013842;28;20037;-77
2023/04/03 04:48:40;;;;;;;12.85;8.98;;;;;;;8.84;100.00;97220.72;5020896;28;20099;-74
2023/04/03 04:51:06;;;;;;;11.05;9.00;;;;;;;8.33;100.00;97130.44;5033857;28;20021;-79
2023/04/03 04:53:32;;;;;;;11.95;10.77;;;;;;;8.39;100.00;97216.09;5033848;28;20576;-82
2023/04/03 04:55:58;;;;;;;22.27;16.48;;;;;;;8.21;100.00;97234.94;5032620;28;20029;-81
2023/04/03 04:58:23;;;;;;;14.45;13.05;;;;;;;8.47;100.00;97176.75;5033362;28;20506;-79
2023/04/03 05:00:49;;;;;;;20.67;17.25;;;;;;;8.58;100.00;97192.03;5034343;28;20064;-77
2023/04/03 05:03:14;;;;;;;17.35;15.05;;;;;;;8.97;100.00;97228.34;5034169;28;20049;-79
2023/04/03 05:05:40;;;;;;;13.52;11.43;;;;;;;7.99;100.00;97120.84;5033353;28;20450;-78
2023/04/03 05:08:08;;;;;;;17.92;8.75;;;;;;;8.17;100.00;97257.09;5051334;28;20083;-78
2023/04/03 05:10:34;;;;;;;20.45;12.10;;;;;;;7.24;100.00;97203.00;5034064;28;20040;-79
2023/04/03 05:12:59;;;;;;;20.05;10.63;;;;;;;7.87;100.00;97206.69;5033392;28;20041;-79
2023/04/03 05:15:25;;;;;;;17.35;10.15;;;;;;;8.62;100.00;97268.59;5051636;28;20481;-79
2023/04/03 05:17:50;;;;;;;10.07;7.57;;;;;;;8.60;100.00;97256.03;5033595;28;20057;-79
2023/04/03 05:20:16;;;;;;;8.02;6.38;;;;;;;8.61;100.00;97247.53;5034226;28;20029;-78
2023/04/03 05:22:42;;;;;;;11.95;7.50;;;;;;;9.05;100.00;97251.44;5030050;28;20064;-79
2023/04/03 05:25:08;;;;;;;10.23;7.25;;;;;;;8.42;100.00;97124.78;5014254;28;20056;-78
2023/04/03 05:27:33;;;;;;;8.25;5.07;;;;;;;8.80;100.00;97117.19;5030583;28;20092;-79
2023/04/03 05:29:59;;;;;;;6.47;5.70;;;;;;;9.41;100.00;97173.72;5031286;28;20029;-77
2023/04/03 05:32:27;;;;;;;6.60;5.60;;;;;;;9.22;100.00;97147.22;5013874;28;20037;-79
2023/04/03 05:34:53;;;;;;;8.63;6.30;;;;;;;9.61;100.00;97121.66;5032206;28;20025;-79
2023/04/03 05:37:18;;;;;;;5.95;5.35;;;;;;;10.09;100.00;97198.56;5015249;28;20056;-78
2023/04/03 05:39:45;;;;;;;5.88;4.72;;;;;;;10.24;100.00;97190.69;5046954;28;20033;-78
2023/04/03 05:42:11;;;;;;;8.52;5.80;;;;;;;10.51;100.00;97187.91;5013849;28;20033;-81
2023/04/03 05:44:37;;;;;;;7.20;5.80;;;;;;;10.15;100.00;97176.13;5000343;28;20060;-79
2023/04/03 05:47:04;;;;;;;8.40;6.65;;;;;;;10.20;100.00;97165.66;5012036;28;20057;-82
2023/04/03 05:49:33;;;;;;;13.63;7.20;;;;;;;10.45;100.00;97162.97;4994966;28;20029;-81
2023/04/03 05:51:59;;;;;;;21.77;11.88;;;;;;;10.14;100.00;97154.19;5012022;28;20063;-81
2023/04/03 05:54:29;;;;;;;15.63;11.75;;;;;;;9.98;100.00;97097.81;4993795;28;20175;-80
2023/04/03 05:56:54;;;;;;;15.70;10.43;;;;;;;10.85;100.00;97123.53;5012226;28;20037;-80
2023/04/03 05:59:20;;;;;;;12.52;9.25;;;;;;;10.78;100.00;97144.41;5027309;28;20038;-80
2023/04/03 06:01:46;;;;;;;12.68;8.70;;;;;;;10.10;100.00;97080.94;5008147;28;20066;-81
2023/04/03 06:04:13;;;;;;;12.95;8.18;;;;;;;9.80;100.00;97068.72;4990802;28;20038;-79
2023/04/03 06:06:53;;;;;;;14.13;8.95;;;;;;;10.94;100.00;97147.44;4992364;28;20544;-80
2023/04/03 06:09:21;;;;;;;13.93;9.50;;;;;;;10.48;100.00;97069.56;4974713;28;20508;-81
2023/04/03 06:11:47;;;;;;;15.65;11.25;;;;;;;10.85;100.00;97140.50;5012005;28;20107;-81
2023/04/03 06:14:12;;;;;;;17.33;10.13;;;;;;;10.61;100.00;97000.91;4994758;28;20034;-83
2023/04/03 06:16:38;;;;;;;15.15;10.63;;;;;;;11.25;100.00;97067.94;5010903;28;20033;-80
2023/04/03 06:19:05;;;;;;;15.65;11.05;;;;;;;11.42;100.00;97102.19;4998179;28;20172;-79
2023/04/03 06:21:31;;;;;;;14.00;9.77;;;;;;;10.86;100.00;97050.63;4997986;28;20033;-80
2023/04/03 06:23:57;;;;;;;14.55;10.13;;;;;;;11.60;100.00;97109.22;5016028;28;20476;-80
2023/04/03 06:26:22;;;;;;;13.43;9.30;;;;;;;11.47;100.00;97107.75;5014894;28;20030;-81
2023/04/03 06:28:48;;;;;;;11.95;8.50;;;;;;;11.31;100.00;97124.19;4997275;28;20511;-79
2023/04/03 06:31:13;;;;;;;14.90;7.57;;;;;;;11.50;100.00;97102.41;5015762;28;20516;-80
2023/04/03 06:33:38;;;;;;;13.32;7.25;;;;;;;11.80;100.00;97112.78;5015492;28;20029;-79
2023/04/03 06:36:05;;;;;;;9.73;7.00;;;;;;;11.84;100.00;97091.25;5015520;28;20034;-76
2023/04/03 06:38:31;;;;;;;11.45;7.30;;;;;;;12.35;100.00;97101.50;5015246;28;20475;-80
2023/04/03 06:40:58;;;;;;;15.95;9.05;;;;;;;11.96;100.00;97121.59;4997471;28;20040;-79
2023/04/03 06:43:24;;;;;;;13.35;9.75;;;;;;;11.69;100.00;97032.19;5015321;28;20029;-79
2023/04/03 06:45:50;;;;;;;14.50;9.60;;;;;;;12.38;100.00;97131.84;4997580;28;20030;-81
2023/04/03 06:48:16;;;;;;;16.88;11.52;;;;;;;12.32;100.00;97101.78;5015235;28;20061;-79
2023/04/03 06:50:42;;;;;;;18.05;10.93;;;;;;;11.49;100.00;97001.63;5014476;28;20492;-79
2023/04/03 06:53:07;;;;;;;17.38;10.93;;;;;;;12.55;100.00;97109.16;5014723;28;20124;-78
2023/04/03 06:55:33;;;;;;;16.38;11.10;;;;;;;12.50;100.00;97146.13;4997537;28;20129;-79
2023/04/03 06:57:59;;;;;;;18.27;13.75;;;;;;;12.59;100.00;97084.22;4998172;28;20495;-80
2023/04/03 07:00:24;;;;;;;20.73;12.50;;;;;;;12.36;100.00;97154.09;4997711;28;20120;-80
2023/04/03 07:02:57;;;;;;;17.70;11.43;;;;;;;11.95;100.00;97109.81;5007532;28;20438;-79
2023/04/03 07:05:23;;;;;;;21.08;13.48;;;;;;;12.21;100.00;97117.91;5016588;28;20052;-79
2023/04/03 07:07:50;;;;;;;18.70;13.77;;;;;;;13.21;100.00;97176.69;5017454;28;20029;-79
2023/04/03 07:10:15;;;;;;;17.58;12.90;;;;;;;13.33;100.00;97178.22;5017362;28;20483;-80
2023/04/03 07:12:41;;;;;;;24.50;16.33;;;;;;;12.83;100.00;97136.53;5016868;28;20029;-79
2023/04/03 07:15:08;;;;;;;23.17;15.65;;;;;;;13.20;100.00;97199.78;5034064;28;20097;-79
2023/04/03 07:17:33;;;;;;;23.50;14.80;;;;;;;13.26;100.00;97097.25;5049502;28;20037;-79
2023/04/03 07:19:58;;;;;;;17.95;14.02;;;;;;;13.70;100.00;97214.22;5034878;28;20037;-77
2023/04/03 07:22:24;;;;;;;21.77;14.45;;;;;;;13.89;100.00;97232.13;5034407;28;20038;-80
2023/04/03 07:24:50;;;;;;;21.38;13.82;;;;;;;14.18;100.00;97260.28;5033709;28;20032;-79
2023/04/03 07:27:17;;;;;;;27.77;15.63;;;;;;;13.66;100.00;97230.72;5034569;28;20028;-80
2023/04/03 07:29:43;;;;;;;24.95;12.65;;;;;;;14.34;100.00;97293.84;5049070;28;20120;-79
2023/04/03 07:32:10;;;;;;;22.52;11.90;;;;;;;14.33;100.00;97246.22;5034849;28;20113;-78
2023/04/03 07:34:35;;;;;;;15.75;9.80;;;;;;;14.65;100.00;97293.59;5017337;28;20107;-81
2023/04/03 07:37:02;;;;;;;16.85;10.25;;;;;;;14.28;100.00;97302.03;5016361;28;20535;-81
2023/04/03 07:39:27;;;;;;;16.05;7.88;;;;;;;14.68;100.00;97307.84;5016533;28;20526;-84
2023/04/03 07:41:55;;;;;;;9.07;6.65;;;;;;;15.21;100.00;97290.31;5023476;28;20026;-82
2023/04/03 07:44:20;;;;;;;11.55;6.75;;;;;;;15.13;100.00;97341.38;5034283;28;20037;-83
2023/04/03 07:46:46;;;;;;;11.45;6.88;;;;;;;15.18;100.00;97355.38;5015764;28;20043;-82
2023/04/03 07:49:12;;;;;;;12.73;6.28;;;;;;;15.18;100.00;97281.16;5033931;28;20034;-85
2023/04/03 07:51:40;;;;;;;9.70;6.10;;;;;;;15.19;100.00;97305.78;5033246;28;20037;-84
2023/04/03 07:54:06;;;;;;;9.85;5.93;;;;;;;15.35;100.00;97390.50;5034390;28;20030;-82
2023/04/03 07:56:32;;;;;;;9.55;5.97;;;;;;;15.25;100.00;97335.16;5049525;28;20033;-84
2023/04/03 07:58:57;;;;;;;10.63;5.90;;;;;;;14.97;100.00;97313.78;5016600;28;20029;-83
2023/04/03 08:01:28;;;;;;;5.93;4.10;;;;;;;14.78;100.00;97300.97;5015797;28;20040;-83
2023/04/03 08:03:54;;;;;;;9.10;4.43;;;;;;;15.51;100.00;97321.66;5012711;28;20452;-84
2023/04/03 08:06:19;;;;;;;7.20;3.47;;;;;;;15.63;100.00;97415.28;5012846;28;20360;-84
2023/04/03 08:08:47;;;;;;;4.95;3.22;;;;;;;15.68;100.00;97468.69;5012351;28;20022;-83
2023/04/03 08:11:12;;;;;;;6.78;2.63;;;;;;;15.35;100.00;97492.91;5013137;28;20033;-83
2023/04/03 08:13:37;;;;;;;4.40;2.65;;;;;;;15.25;100.00;97419.63;5012821;28;20468;-80
2023/04/03 08:16:12;;;;;;;6.13;2.83;;;;;;;15.18;100.00;97449.25;5012822;28;20030;-84
2023/04/03 08:18:38;;;;;;;8.90;3.15;;;;;;;15.51;100.00;97433.50;5012556;28;20041;-81
2023/04/03 08:21:08;;;;;;;4.60;3.05;;;;;;;15.44;100.00;97429.88;5013515;28;20037;-83
2023/04/03 08:23:34;;;;;;;7.05;2.90;;;;;;;15.88;100.00;97490.78;5012018;28;20034;-82
2023/04/03 08:26:04;;;;;;;5.13;2.53;;;;;;;16.27;100.00;97484.59;5012956;28;20094;-82
2023/04/03 08:28:30;;;;;;;8.85;2.22;;;;;;;15.81;100.00;97540.09;5012903;28;20029;-81
2023/04/03 08:30:55;;;;;;;7.40;2.50;;;;;;;15.69;100.00;97536.09;5011831;28;20026;-80
2023/04/03 08:33:21;;;;;;;4.57;2.60;;;;;;;15.58;100.00;97530.16;5013027;28;20476;-81
2023/04/03 08:35:46;;;;;;;3.63;1.80;;;;;;;15.59;100.00;97593.22;5012965;28;20033;-80
2023/04/03 08:38:12;;;;;;;2.47;1.90;;;;;;;15.60;100.00;97571.00;5012530;28;20030;-82
2023/04/03 08:40:39;;;;;;;5.72;1.77;;;;;;;16.38;100.00;97634.94;5012024;28;20026;-83
2023/04/03 08:43:40;;;;;;;9.73;1.98;;;;;;;16.68;100.00;97662.97;5013017;28;20492;-83
2023/04/03 08:46:15;;;;;;;5.55;2.35;;;;;;;17.47;100.00;97637.72;5012441;28;20026;-82
2023/04/03 08:48:43;;;;;;;6.22;2.20;;;;;;;17.28;100.00;97670.25;5012293;28;20037;-83
2023/04/03 08:51:16;;;;;;;2.83;1.40;;;;;;;16.99;100.00;97736.28;5011731;28;20038;-81
2023/04/03 08:53:54;;;;;;;2.42;1.40;;;;;;;17.71;100.00;97879.56;5013207;28;20071;-82
2023/04/03 08:56:20;;;;;;;2.45;1.67;;;;;;;17.39;100.00;97938.16;5011576;28;20057;-82
2023/04/03 08:58:52;;;;;;;4.63;2.28;;;;;;;17.21;100.00;97966.28;5012221;28;20033;-78
2023/04/03 09:01:35;;;;;;;3.65;1.77;;;;;;;18.04;100.00;98105.38;5012324;28;20532;-82
2023/04/03 09:04:02;;;;;;;5.40;2.55;;;;;;;17.53;100.00;98164.69;5014888;28;20085;-83
2023/04/03 09:06:32;;;;;;;2.85;1.48;;;;;;;16.69;100.00;98066.63;4995040;28;20049;-82
2023/04/03 09:09:40;;;;;;;4.05;1.23;;;;;;;17.42;100.00;98185.31;5011775;28;20057;-75
2023/04/03 09:12:19;;;;;;;1.25;0.80;;;;;;;17.09;100.00;98311.41;4897560;29;20028;-78
2023/04/03 09:14:52;;;;;;;2.55;1.30;;;;;;;17.22;100.00;98252.97;4254699;29;10000830;-76
2023/04/03 09:17:26;;;;;;;3.03;1.52;;;;;;;17.70;100.00;98281.50;5000379;28;20132;-76
2023/04/03 09:20:04;;;;;;;2.22;1.48;;;;;;;17.32;100.00;98300.88;5029511;28;20056;-77
2023/04/03 09:22:33;;;;;;;3.10;1.52;;;;;;;17.69;100.00;98311.50;5012410;28;20124;-75
2023/04/03 09:25:07;;;;;;;2.42;1.50;;;;;;;17.19;100.00;98289.97;5013077;28;20068;-77
2023/04/03 09:27:33;;;;;;;4.38;0.95;;;;;;;17.37;100.00;98444.38;5012951;28;20487;-76
2023/04/03 09:29:58;;;;;;;2.13;1.17;;;;;;;17.22;100.00;98502.09;5030488;28;20083;-77
2023/04/03 09:32:34;;;;;;;2.20;1.27;;;;;;;17.58;100.00;98405.88;5012995;28;20057;-75
2023/04/03 09:35:10;;;;;;;2.08;0.90;;;;;;;17.37;100.00;98508.63;5013099;28;20037;-75
2023/04/03 09:37:42;;;;;;;1.40;0.88;;;;;;;17.22;100.00;98430.19;5012168;28;20091;-81
2023/04/03 09:40:29;;;;;;;3.60;1.10;;;;;;;17.61;100.00;98552.13;5012810;28;20616;-77
2023/04/03 09:43:00;;;;;;;3.35;1.50;;;;;;;17.68;100.00;98515.53;5013195;28;20029;-79
2023/04/03 09:45:32;;;;;;;4.85;1.90;;;;;;;16.93;100.00;98364.94;4999779;28;20065;-77
2023/04/03 09:48:13;;;;;;;5.15;2.17;;;;;;;17.33;100.00;98350.50;4992501;28;20026;-77
2023/04/03 09:50:58;;;;;;;2.95;1.55;;;;;;;16.63;100.00;98216.78;4992574;28;20030;-81
2023/04/03 09:53:30;;;;;;;3.25;2.03;;;;;;;17.15;100.00;98285.22;4975425;28;20042;-79
2023/04/03 09:56:03;;;;;;;3.17;1.80;;;;;;;17.22;100.00;98207.53;4993144;28;20034;-79
2023/04/03 09:59:01;;;;;;;2.65;1.65;;;;;;;16.88;100.00;98184.78;4991369;28;20042;-79
2023/04/03 10:01:32;;;;;;;4.63;1.25;;;;;;;17.21;100.00;98295.00;4976733;28;20131;-77
2023/04/03 10:04:10;;;;;;;5.25;1.70;;;;;;;17.64;100.00;98300.00;4976102;28;20051;-79
2023/04/03 10:06:48;;;;;;;3.30;1.90;;;;;;;17.55;100.00;98316.19;4976373;28;20038;-79
2023/04/03 10:09:19;;;;;;;2.55;1.60;;;;;;;17.17;100.00;98314.97;4992840;28;20524;-79
2023/04/03 10:12:04;;;;;;;3.70;1.77;;;;;;;17.48;100.00;98394.69;4974591;28;20053;-78
2023/04/03 10:14:32;;;;;;;3.05;1.70;;;;;;;16.63;100.00;98262.13;5006826;28;20042;-80
2023/04/03 10:17:27;;;;;;;3.08;1.40;;;;;;;17.25;100.00;98316.94;4991563;28;20035;-80
2023/04/03 10:19:59;;;;;;;6.00;2.40;;;;;;;17.56;100.00;98334.03;4976289;28;20058;-79
2023/04/03 10:22:36;;;;;;;2.50;1.10;;;;;;;17.50;100.00;98434.75;4976450;28;20034;-74
2023/04/03 10:25:25;;;;;;;1.85;1.15;;;;;;;17.43;100.00;98517.59;4992675;28;20041;-79
2023/04/03 10:28:03;;;;;;;5.03;1.60;;;;;;;17.39;100.00;98503.34;4992707;28;20026;-81
2023/04/03 10:30:51;;;;;;;4.35;1.88;;;;;;;16.94;100.00;98466.66;4992310;28;20074;-78
2023/04/03 10:33:31;;;;;;;4.90;2.47;;;;;;;17.17;100.00;98505.00;5007942;28;20443;-78
2023/04/03 10:36:33;;;;;;;3.92;1.90;;;;;;;17.08;100.00;98469.81;4993032;28;20129;-79
2023/04/03 10:39:06;;;;;;;4.90;1.95;;;;;;;16.30;100.00;98345.13;4975801;28;20057;-80
2023/04/03 10:41:42;;;;;;;6.10;2.20;;;;;;;16.67;100.00;98438.84;4992273;28;20153;-81
2023/04/03 10:44:24;;;;;;;3.78;1.80;;;;;;;16.89;100.00;98509.88;4992769;28;20030;-82
2023/04/03 10:47:05;;;;;;;2.72;1.67;;;;;;;16.51;100.00;98433.25;4993035;28;20527;-82
2023/04/03 10:49:52;;;;;;;1.42;1.20;;;;;;;16.88;100.00;98488.50;4992666;28;20034;-84
2023/04/03 10:52:50;;;;;;;3.92;1.80;;;;;;;17.05;100.00;98471.81;5012106;28;20107;-82
2023/04/03 10:55:41;;;;;;;5.90;1.73;;;;;;;16.91;100.00;98444.66;4984159;28;20132;-82
2023/04/03 10:58:13;;;;;;;3.97;1.40;;;;;;;17.02;100.00;98447.16;4994346;28;20033;-84
2023/04/03 11:00:48;;;;;;;5.55;1.70;;;;;;;17.17;100.00;98452.84;5012233;28;20058;-84
2023/04/03 11:03:30;;;;;;;2.92;1.67;;;;;;;17.16;100.00;98477.72;5001426;28;20049;-85
2023/04/03 11:06:00;;;;;;;3.55;1.38;;;;;;;16.41;100.00;98368.19;5017788;28;20124;-86
2023/04/03 11:08:28;;;;;;;3.75;1.70;;;;;;;17.18;100.00;98485.28;5035173;28;20032;-78
2023/04/03 11:10:59;;;;;;;4.05;2.00;;;;;;;16.74;100.00;98432.28;5035604;28;20061;-83
2023/04/03 11:13:37;;;;;;;2.42;1.50;;;;;;;17.09;100.00;98537.38;5035678;28;20115;-81
2023/04/03 11:16:05;;;;;;;5.40;2.05;;;;;;;16.64;100.00;98453.66;5017994;28;20439;-82
2023/04/03 11:18:46;;;;;;;6.10;2.33;;;;;;;17.02;100.00;98490.81;5035515;28;20104;-84
2023/04/03 11:21:43;;;;;;;6.82;2.90;;;;;;;17.07;100.00;98446.81;5035330;28;20504;-80
2023/04/03 11:24:20;;;;;;;5.30;2.90;;;;;;;16.52;100.00;98346.84;5034876;28;20042;-79
2023/04/03 11:26:46;;;;;;;5.78;3.00;;;;;;;16.56;100.00;98341.34;5017442;28;20061;-77
2023/04/03 11:29:18;;;;;;;6.47;3.95;;;;;;;16.82;100.00;98341.84;5034645;28;20025;-81
2023/04/03 11:32:08;;;;;;;8.65;3.60;;;;;;;17.06;100.00;98348.41;5050712;28;20043;-81
2023/04/03 11:34:40;;;;;;;11.65;3.38;;;;;;;17.05;100.00;98320.31;5034934;28;20037;-78